| time (UTC) | temp F | wind direction | speed MPH | gust MPH | rain 1hr in | rain 24hr in | rain mn in | humidity % | barometer mb |
| 20260510004558 | 57 | 0 | 0.0 | 1.0 | 0.00 | 0.22 | 0.22 | 81 | 1010.2 |
| 20260510003103 | 58 | 141 | 0.0 | 1.0 | 0.00 | 0.22 | 0.22 | 80 | 1010.3 |
| 20260510001554 | 59 | 0 | 0.0 | 1.0 | 0.00 | 0.22 | 0.22 | 78 | 1010.0 |
| 20260510000056 | 59 | 154 | 1.0 | 2.0 | 0.00 | 0.22 | 0.22 | 78 | 1009.7 |
| 20260509234606 | 60 | 233 | 0.0 | 2.0 | 0.00 | 0.22 | 0.22 | 76 | 1009.7 |
| 20260509233055 | 61 | 0 | 1.0 | 6.0 | 0.00 | 0.22 | 0.22 | 76 | 1009.7 |
| 20260509231557 | 61 | 163 | 2.0 | 5.0 | 0.00 | 0.22 | 0.22 | 76 | 1009.5 |
| 20260509230055 | 61 | 154 | 4.0 | 7.0 | 0.00 | 0.22 | 0.22 | 76 | 1009.7 |
| 20260509224608 | 61 | 203 | 3.0 | 7.0 | 0.00 | 0.22 | 0.22 | 75 | 1009.6 |
| 20260509223100 | 62 | 219 | 4.0 | 7.0 | 0.00 | 0.22 | 0.22 | 74 | 1009.6 |
| 20260509221554 | 62 | 186 | 2.0 | 7.0 | 0.00 | 0.22 | 0.22 | 74 | 1009.6 |
| 20260509214557 | 62 | 154 | 2.0 | 6.0 | 0.00 | 0.22 | 0.22 | 75 | 1009.9 |
| 20260509213058 | 61 | 196 | 3.0 | 6.0 | 0.00 | 0.22 | 0.22 | 76 | 1009.9 |
| 20260509211557 | 61 | 193 | 1.0 | 4.0 | 0.00 | 0.22 | 0.22 | 77 | 1010.1 |
| 20260509204603 | 58 | 0 | 2.0 | 3.0 | 0.00 | 0.22 | 0.22 | 81 | 1010.7 |
| 20260509203054 | 58 | 4 | 1.0 | 4.0 | 0.00 | 0.22 | 0.22 | 81 | 1010.6 |
| 20260509201556 | 59 | 60 | 1.0 | 2.0 | 0.00 | 0.22 | 0.22 | 81 | 1010.2 |
| 20260509200056 | 59 | 0 | 0.0 | 0.0 | 0.00 | 0.22 | 0.22 | 77 | 1010.8 |
| 20260509194558 | 60 | 0 | 0.0 | 2.0 | 0.00 | 0.22 | 0.22 | 76 | 1010.7 |
| 20260509193059 | 60 | 0 | 1.0 | 6.0 | 0.00 | 0.22 | 0.22 | 77 | 1010.9 |
| 20260509191614 | 60 | 286 | 1.0 | 5.0 | 0.00 | 0.22 | 0.22 | 78 | 1011.0 |
| 20260509190100 | 58 | 178 | 2.0 | 8.0 | 0.00 | 0.22 | 0.22 | 80 | 1011.3 |
| 20260509184554 | 58 | 151 | 2.0 | 7.0 | 0.00 | 0.22 | 0.22 | 80 | 1011.5 |
| 20260509183103 | 58 | 199 | 2.0 | 5.0 | 0.00 | 0.22 | 0.22 | 83 | 1011.3 |
| 20260509181602 | 56 | 96 | 1.0 | 3.0 | 0.00 | 0.22 | 0.22 | 85 | 1011.4 |
| 20260509180059 | 55 | 207 | 2.0 | 3.0 | 0.00 | 0.22 | 0.22 | 86 | 1011.6 |
| 20260509174604 | 55 | 195 | 1.0 | 3.0 | 0.00 | 0.22 | 0.22 | 87 | 1011.6 |
| 20260509173112 | 55 | 198 | 2.0 | 3.0 | 0.01 | 0.22 | 0.22 | 88 | 1011.8 |
| 20260509171601 | 54 | 189 | 3.0 | 5.0 | 0.01 | 0.22 | 0.22 | 87 | 1012.0 |
| 20260509170059 | 54 | 208 | 3.0 | 5.0 | 0.03 | 0.22 | 0.22 | 88 | 1012.1 |
| 20260509164557 | 53 | 198 | 2.0 | 3.0 | 0.07 | 0.22 | 0.22 | 88 | 1011.9 |
| 20260509163105 | 52 | 158 | 2.0 | 3.0 | 0.11 | 0.21 | 0.21 | 88 | 1011.6 |
| 20260509161554 | 52 | 61 | 2.0 | 4.0 | 0.15 | 0.21 | 0.21 | 88 | 1011.4 |
| 20260509160100 | 53 | 34 | 4.0 | 6.0 | 0.14 | 0.19 | 0.19 | 87 | 1011.8 |
| 20260509154604 | 53 | 0 | 0.0 | 2.0 | 0.13 | 0.15 | 0.15 | 85 | 1012.4 |
| 20260509153057 | 53 | 258 | 2.0 | 5.0 | 0.10 | 0.10 | 0.10 | 84 | 1012.9 |
| 20260509151556 | 54 | 252 | 2.0 | 5.0 | 0.06 | 0.06 | 0.06 | 82 | 1012.8 |
| 20260509150055 | 55 | 205 | 3.0 | 5.0 | 0.05 | 0.05 | 0.05 | 83 | 1012.7 |
| 20260509144609 | 55 | 217 | 0.0 | 1.0 | 0.02 | 0.02 | 0.02 | 83 | 1012.5 |
| 20260509143056 | 55 | 155 | 0.0 | 1.0 | 0.00 | 0.00 | 0.00 | 84 | 1012.4 |
| 20260509141555 | 54 | 0 | 0.0 | 1.0 | 0.00 | 0.00 | 0.00 | 84 | 1012.2 |
| 20260509140107 | 54 | 0 | 0.0 | 2.0 | 0.00 | 0.00 | 0.00 | 84 | 1012.1 |
| 20260509134555 | 53 | 3 | 1.0 | 2.0 | 0.00 | 0.00 | 0.00 | 84 | 1012.1 |
| 20260509133102 | 53 | 0 | 0.0 | 3.0 | 0.00 | 0.00 | 0.00 | 83 | 1012.1 |
| 20260509131602 | 53 | 227 | 1.0 | 5.0 | 0.00 | 0.00 | 0.00 | 83 | 1012.0 |
| 20260509130105 | 52 | 68 | 3.0 | 4.0 | 0.00 | 0.00 | 0.00 | 83 | 1011.6 |
| 20260509124603 | 52 | 70 | 3.0 | 5.0 | 0.00 | 0.00 | 0.00 | 82 | 1011.7 |
| 20260509123057 | 52 | 0 | 1.0 | 2.0 | 0.00 | 0.00 | 0.00 | 82 | 1011.8 |
| 20260509121604 | 52 | 27 | 3.0 | 3.0 | 0.00 | 0.00 | 0.00 | 82 | 1011.7 |
| 20260509120055 | 52 | 199 | 2.0 | 6.0 | 0.00 | 0.00 | 0.00 | 82 | 1011.8 |
| 20260509114555 | 51 | 32 | 5.0 | 6.0 | 0.00 | 0.00 | 0.00 | 81 | 1011.5 |
| 20260509113101 | 51 | 29 | 1.0 | 2.0 | 0.00 | 0.00 | 0.00 | 81 | 1011.5 |
| 20260509111603 | 51 | 0 | 1.0 | 5.0 | 0.00 | 0.00 | 0.00 | 82 | 1011.3 |
| 20260509110056 | 51 | 37 | 3.0 | 5.0 | 0.00 | 0.00 | 0.00 | 82 | 1011.4 |
| 20260509104600 | 51 | 36 | 2.0 | 5.0 | 0.00 | 0.00 | 0.00 | 82 | 1011.4 |
| 20260509103103 | 51 | 0 | 0.0 | 5.0 | 0.00 | 0.00 | 0.00 | 81 | 1011.2 |
| 20260509101603 | 51 | 32 | 3.0 | 5.0 | 0.00 | 0.00 | 0.00 | 80 | 1011.0 |
| 20260509100104 | 51 | 9 | 3.0 | 6.0 | 0.00 | 0.00 | 0.00 | 80 | 1011.0 |
| 20260509094601 | 51 | 35 | 4.0 | 5.0 | 0.00 | 0.00 | 0.00 | 79 | 1010.9 |
| 20260509093100 | 51 | 0 | 0.0 | 2.0 | 0.00 | 0.00 | 0.00 | 80 | 1011.3 |
| 20260509091559 | 51 | 0 | 0.0 | 1.0 | 0.00 | 0.00 | 0.00 | 79 | 1011.0 |
| 20260509090107 | 51 | 0 | 0.0 | 0.0 | 0.00 | 0.00 | 0.00 | 79 | 1011.2 |
| 20260509084602 | 51 | 0 | 0.0 | 0.0 | 0.00 | 0.00 | 0.00 | 80 | 1011.3 |
| 20260509083100 | 50 | 11 | 0.0 | 1.0 | 0.00 | 0.00 | 0.00 | 81 | 1011.3 |
| 20260509081556 | 51 | 0 | 0.0 | 1.0 | 0.00 | 0.00 | 0.00 | 80 | 1011.5 |
| 20260509080100 | 51 | 0 | 1.0 | 2.0 | 0.00 | 0.00 | 0.00 | 80 | 1011.7 |
| 20260509074556 | 51 | 39 | 2.0 | 4.0 | 0.00 | 0.00 | 0.00 | 81 | 1011.5 |
| 20260509073056 | 50 | 30 | 2.0 | 3.0 | 0.00 | 0.00 | 0.00 | 81 | 1011.6 |
| 20260509071557 | 50 | 44 | 0.0 | 1.0 | 0.00 | 0.00 | 0.00 | 80 | 1011.9 |
| 20260509070057 | 51 | 28 | 1.0 | 3.0 | 0.00 | 0.00 | 0.00 | 80 | 1011.8 |
| 20260509064556 | 51 | 51 | 3.0 | 6.0 | 0.00 | 0.00 | 0.00 | 79 | 1011.8 |
| 20260509063104 | 52 | 4 | 2.0 | 3.0 | 0.00 | 0.00 | 0.00 | 79 | 1011.9 |
| 20260509061554 | 52 | 48 | 4.0 | 8.0 | 0.00 | 0.00 | 0.00 | 78 | 1012.0 |
| 20260509060100 | 52 | 18 | 5.0 | 7.0 | 0.00 | 0.00 | 0.00 | 79 | 1012.1 |
| 20260509054606 | 53 | 34 | 5.0 | 8.0 | 0.00 | 0.00 | 0.00 | 77 | 1012.1 |
| 20260509053133 | 53 | 39 | 3.0 | 5.0 | 0.00 | 0.00 | 0.00 | 77 | 1012.2 |
| 20260509051557 | 53 | 36 | 2.0 | 5.0 | 0.00 | 0.00 | 0.00 | 76 | 1012.5 |
| 20260509050057 | 53 | 19 | 5.0 | 6.0 | 0.00 | 0.00 | 0.00 | 75 | 1012.7 |
| 20260509044554 | 53 | 11 | 3.0 | 4.0 | 0.00 | 0.00 | 0.00 | 75 | 1012.4 |
| 20260509043107 | 53 | 44 | 2.0 | 4.0 | 0.00 | 0.00 | 0.00 | 76 | 1012.5 |
| 20260509041602 | 53 | 23 | 5.0 | 7.0 | 0.00 | 0.00 | 0.00 | 76 | 1012.4 |
| 20260509040109 | 55 | 31 | 3.0 | 3.0 | 0.00 | 0.00 | 0.00 | 70 | 1012.7 |
| 20260509034604 | 55 | 0 | 0.0 | 1.0 | 0.00 | 0.00 | 0.00 | 70 | 1012.8 |
| 20260509033054 | 55 | 0 | 1.0 | 4.0 | 0.00 | 0.00 | 0.00 | 69 | 1013.0 |
| 20260509031605 | 55 | 131 | 0.0 | 1.0 | 0.00 | 0.00 | 0.00 | 67 | 1012.9 |
| 20260509030056 | 54 | 0 | 0.0 | 4.0 | 0.00 | 0.00 | 0.00 | 71 | 1013.0 |
| 20260509024554 | 54 | 212 | 4.0 | 5.0 | 0.00 | 0.00 | 0.00 | 76 | 1013.0 |
| 20260509023054 | 54 | 0 | 0.0 | 1.0 | 0.00 | 0.00 | 0.00 | 72 | 1012.3 |
| 20260509021556 | 54 | 0 | 0.0 | 4.0 | 0.00 | 0.00 | 0.00 | 74 | 1012.4 |
| 20260509020056 | 54 | 38 | 3.0 | 4.0 | 0.00 | 0.00 | 0.00 | 72 | 1012.7 |
| 20260509014601 | 55 | 0 | 0.0 | 0.0 | 0.00 | 0.00 | 0.00 | 69 | 1012.7 |
| 20260509013103 | 55 | 0 | 0.0 | 0.0 | 0.00 | 0.00 | 0.00 | 66 | 1012.5 |
| 20260509011555 | 56 | 0 | 0.0 | 0.0 | 0.00 | 0.00 | 0.00 | 64 | 1012.4 |
| 20260509010057 | 57 | 0 | 0.0 | 0.0 | 0.00 | 0.00 | 0.00 | 62 | 1012.3 |